SCQX weather

Queilén Airport
Queilen, Los Lagos Region, Chile

Public forecast

Using degrees Celsius for public forecast. Weather courtesy of forecast.io.

Closest aviation weather report (METAR) to Queilén Airport

Closest report is Quellón Airport, 16.2 nm (30.0 km) SSW. Retrieved 2019/10/18 02:00 UTC (25 minutes ago):

SCON 180200Z AUTO VRB02KT 9999 OVC036/// 09/08 Q1028

Closest aviation forecast (TAF) to Queilén Airport

Forecast is more than 12 hours old.

Closest forecast is Chaitén Airport, 34.3 nm (63.5 km) E. Retrieved 2018/09/16 12:33 UTC (1 year ago):

TAF SPJL 161124Z 1612/1712 VRB04KT 9999 FEW020LVA0551 161131 GG KWBCYMYX MPZZMAMX 161130 SCSCYZYX SPCH03 SCTN 161130 SPECI SCTN 161130Z 36020G31KT +RA SCT013 OVC017 11/09 Q1009